createdAt,value
2023-02-12T00:01:10.907Z,26.43
2023-02-12T00:03:39.437Z,27.30
2023-02-12T00:06:08.155Z,23.83
2023-02-12T00:08:36.676Z,23.17
2023-02-12T00:11:12.082Z,25.23
2023-02-12T00:13:40.500Z,24.87
2023-02-12T00:16:11.220Z,24.93
2023-02-12T00:18:39.209Z,26.70
2023-02-12T00:21:09.031Z,27.50
2023-02-12T00:23:38.085Z,23.33
2023-02-12T00:26:11.962Z,26.93
2023-02-12T00:28:40.542Z,25.57
2023-02-12T00:31:10.161Z,27.97
2023-02-12T00:33:38.801Z,26.00
2023-02-12T00:36:07.988Z,28.43
2023-02-12T00:38:36.540Z,28.93
2023-02-12T00:41:04.835Z,25.17
2023-02-12T00:43:34.443Z,30.40
2023-02-12T00:46:02.449Z,29.23
2023-02-12T00:48:30.662Z,28.77
2023-02-12T00:50:58.565Z,27.23
2023-02-12T00:53:26.859Z,25.60
2023-02-12T00:55:55.507Z,23.50
2023-02-12T00:58:24.494Z,25.83
2023-02-12T01:00:55.141Z,29.90
2023-02-12T01:03:23.253Z,28.30
2023-02-12T01:05:51.345Z,29.43
2023-02-12T01:08:19.262Z,26.50
2023-02-12T01:10:47.170Z,32.83
2023-02-12T01:13:16.325Z,31.20
2023-02-12T01:15:44.422Z,24.53
2023-02-12T01:18:16.283Z,25.90
2023-02-12T01:20:44.343Z,35.47
2023-02-12T01:23:12.236Z,25.60
2023-02-12T01:25:40.551Z,22.87
2023-02-12T01:28:08.632Z,27.73
2023-02-12T01:30:36.592Z,33.10
2023-02-12T01:33:04.720Z,29.30
2023-02-12T01:35:34.227Z,28.57
2023-02-12T01:38:02.238Z,27.13
2023-02-12T01:40:30.547Z,25.80
2023-02-12T01:43:02.264Z,26.57
2023-02-12T01:45:47.721Z,29.10
2023-02-12T01:48:18.310Z,34.47
2023-02-12T01:50:49.744Z,29.60
2023-02-12T01:53:22.788Z,29.77
2023-02-12T01:55:54.888Z,28.93
2023-02-12T01:58:24.984Z,24.97
2023-02-12T02:00:53.720Z,29.93
2023-02-12T02:03:22.048Z,26.70
2023-02-12T02:05:57.662Z,28.70
2023-02-12T02:08:26.746Z,24.40
2023-02-12T02:10:54.708Z,23.43
2023-02-12T02:13:40.586Z,27.77
2023-02-12T02:16:17.325Z,30.77
2023-02-12T02:18:51.651Z,26.38
2023-02-12T02:21:47.023Z,28.30
2023-02-12T02:24:38.888Z,29.77
2023-02-12T02:27:17.912Z,28.33
2023-02-12T02:30:14.400Z,25.27
2023-02-12T02:32:51.018Z,29.40
2023-02-12T02:35:28.487Z,27.17
2023-02-12T02:38:13.403Z,29.63
2023-02-12T02:40:49.534Z,25.77
2023-02-12T02:43:21.468Z,26.57
2023-02-12T02:45:53.933Z,31.70
2023-02-12T02:48:28.056Z,27.23
2023-02-12T02:51:00.202Z,30.67
2023-02-12T02:53:32.270Z,27.48
2023-02-12T02:56:03.224Z,23.90
2023-02-12T02:58:36.549Z,28.73
2023-02-12T03:01:08.639Z,29.43
2023-02-12T03:03:43.667Z,22.67
2023-02-12T03:06:15.631Z,30.40
2023-02-12T03:08:49.873Z,27.83
2023-02-12T03:11:24.134Z,26.53
2023-02-12T03:13:58.750Z,27.47
2023-02-12T03:16:30.207Z,26.23
2023-02-12T03:19:07.233Z,24.37
2023-02-12T03:21:40.761Z,24.37
2023-02-12T03:24:13.863Z,31.13
2023-02-12T03:26:47.398Z,32.67
2023-02-12T03:29:16.249Z,24.93
2023-02-12T03:31:57.035Z,27.00
2023-02-12T03:34:34.645Z,25.83
2023-02-12T03:37:09.356Z,31.23
2023-02-12T03:39:46.697Z,28.30
2023-02-12T03:42:19.008Z,28.23
2023-02-12T03:44:54.400Z,26.47
2023-02-12T03:47:26.992Z,30.73
2023-02-12T03:50:03.775Z,29.23
2023-02-12T03:52:32.742Z,26.27
2023-02-12T03:55:00.815Z,25.27
2023-02-12T03:57:35.379Z,24.17
2023-02-12T04:00:06.420Z,25.93
2023-02-12T04:02:35.584Z,27.97
2023-02-12T04:05:08.197Z,24.67
2023-02-12T04:07:37.886Z,26.43
2023-02-12T04:10:06.962Z,23.13
2023-02-12T04:12:41.756Z,27.57
2023-02-12T04:15:25.275Z,33.53
2023-02-12T04:18:02.443Z,28.17
2023-02-12T04:20:42.470Z,26.10
2023-02-12T04:23:22.209Z,29.37
2023-02-12T04:26:00.422Z,32.47
2023-02-12T13:15:02.355Z,9.93
2023-02-12T13:17:37.038Z,7.22
2023-02-12T13:20:14.167Z,7.17
2023-02-12T13:22:48.993Z,5.90
2023-02-12T13:25:25.310Z,7.40
2023-02-12T13:27:54.415Z,6.30
2023-02-12T13:30:28.060Z,5.83
2023-02-12T13:33:04.392Z,6.75
2023-02-12T13:35:34.446Z,5.40
2023-02-12T13:38:05.529Z,5.47
2023-02-12T13:40:34.418Z,5.27
2023-02-12T13:43:13.019Z,6.00
2023-02-12T13:45:50.263Z,8.70
2023-02-12T13:48:33.561Z,4.50
2023-02-12T13:51:09.472Z,8.70
2023-02-12T13:53:51.981Z,10.65
2023-02-12T13:56:36.077Z,7.87
2023-02-12T13:59:04.360Z,7.60
2023-02-12T14:01:47.550Z,9.07
2023-02-12T14:04:28.860Z,10.47
2023-02-12T14:07:03.510Z,8.80
2023-02-12T14:09:38.036Z,8.00
2023-02-12T14:12:09.627Z,12.70
2023-02-12T14:14:41.082Z,11.95
2023-02-12T14:17:53.283Z,9.37
2023-02-12T14:20:25.698Z,7.00
2023-02-12T14:23:28.102Z,9.20
2023-02-12T14:26:02.535Z,8.40
2023-02-12T14:28:58.523Z,10.53
2023-02-12T14:31:44.343Z,9.73
2023-02-12T14:34:40.753Z,9.97
2023-02-12T14:37:16.155Z,10.13
2023-02-12T14:39:45.581Z,12.47
2023-02-12T14:42:47.152Z,10.77
2023-02-12T14:45:33.720Z,13.70
2023-02-12T14:48:02.618Z,11.33
2023-02-12T14:50:39.348Z,4.73
2023-02-12T14:53:27.666Z,5.80
2023-02-12T14:55:57.507Z,8.93
2023-02-12T14:58:27.284Z,9.88
2023-02-12T15:00:57.437Z,7.37
2023-02-12T15:03:32.945Z,9.77
2023-02-12T15:06:16.132Z,12.38
2023-02-12T15:08:52.520Z,11.00
2023-02-12T15:11:39.617Z,14.47
2023-02-12T15:14:13.995Z,10.98
2023-02-12T15:16:50.623Z,13.90
2023-02-12T15:19:29.482Z,11.27
2023-02-12T15:21:59.614Z,13.93
2023-02-12T15:24:28.707Z,10.07
2023-02-12T15:26:59.018Z,11.20
2023-02-12T15:29:30.393Z,7.30
2023-02-12T15:32:00.678Z,9.50
2023-02-12T15:34:32.311Z,10.57
2023-02-12T15:37:04.618Z,13.40
2023-02-12T15:39:43.489Z,15.37
2023-02-12T15:42:29.563Z,14.60
2023-02-12T15:45:17.340Z,14.03
2023-02-12T15:47:46.403Z,14.90
2023-02-12T15:50:16.592Z,11.73
2023-02-12T15:52:48.078Z,15.82
2023-02-12T15:55:18.675Z,16.77
2023-02-12T15:57:51.780Z,16.00
2023-02-12T16:00:29.671Z,16.90
2023-02-12T16:02:57.749Z,12.90
2023-02-12T16:05:26.905Z,18.10
2023-02-12T16:07:57.041Z,16.00
2023-02-12T16:10:27.250Z,23.10
2023-02-12T16:12:55.743Z,24.90
2023-02-12T16:15:30.771Z,18.33
2023-02-12T16:18:03.922Z,16.43
2023-02-12T16:20:33.018Z,18.47
2023-02-12T16:23:07.896Z,21.93
2023-02-12T16:25:36.429Z,17.47
2023-02-12T16:28:05.716Z,24.90
2023-02-12T16:30:38.845Z,22.83
2023-02-12T16:33:43.338Z,22.37
2023-02-12T16:36:15.869Z,23.70
2023-02-12T16:38:47.730Z,20.80
2023-02-12T16:41:24.636Z,27.10
2023-02-12T16:44:13.550Z,25.67
2023-02-12T16:46:51.306Z,23.63
2023-02-12T16:49:21.685Z,34.10
2023-02-12T16:51:50.761Z,20.67
2023-02-12T16:54:30.927Z,23.20
2023-02-12T16:56:59.896Z,24.50
2023-02-12T16:59:27.856Z,26.40
2023-02-12T17:02:03.050Z,22.90
2023-02-12T17:04:31.862Z,21.83
2023-02-12T17:06:59.789Z,24.43
2023-02-12T17:09:29.658Z,28.53
2023-02-12T17:11:57.965Z,24.23
2023-02-12T17:14:26.080Z,22.30
2023-02-12T17:16:54.501Z,27.27
2023-02-12T17:19:23.829Z,22.43
2023-02-12T17:21:52.315Z,23.93
2023-02-12T17:24:23.402Z,25.20
2023-02-12T17:26:52.214Z,21.53
2023-02-12T17:29:21.880Z,24.47
2023-02-12T17:31:50.199Z,25.63
2023-02-12T17:34:18.248Z,30.50
2023-02-12T17:36:47.828Z,30.93
2023-02-12T17:39:16.712Z,28.83
2023-02-12T17:41:45.319Z,28.67
2023-02-12T17:44:15.080Z,27.90
2023-02-12T17:46:44.116Z,34.77
2023-02-12T17:49:12.388Z,26.23
2023-02-12T17:51:40.504Z,27.03
2023-02-12T17:54:10.082Z,26.17
2023-02-12T17:56:38.289Z,28.07
2023-02-12T17:59:06.267Z,37.17
2023-02-12T18:01:36.041Z,32.10
2023-02-12T18:04:04.195Z,32.90
2023-02-12T18:06:32.594Z,33.10
2023-02-12T18:09:01.970Z,31.03
2023-02-12T18:11:32.955Z,33.30
2023-02-12T18:14:02.355Z,29.73
2023-02-12T18:16:34.465Z,32.53
2023-02-12T18:19:04.649Z,32.33
2023-02-12T18:21:33.940Z,39.60
2023-02-12T18:24:02.256Z,41.57
2023-02-12T18:26:31.785Z,35.07
2023-02-12T18:29:00.099Z,33.38
2023-02-12T18:31:29.408Z,35.27
2023-02-12T18:33:57.448Z,35.63
2023-02-12T18:36:25.394Z,34.93
2023-02-12T18:38:54.171Z,33.33
2023-02-12T18:41:24.064Z,36.30
2023-02-12T18:43:54.870Z,38.00
2023-02-12T18:46:24.965Z,35.27
2023-02-12T18:48:53.419Z,35.50
2023-02-12T18:51:23.464Z,38.60
2023-02-12T18:53:58.773Z,34.70
2023-02-12T18:56:27.094Z,35.22
2023-02-12T18:59:01.095Z,38.47
2023-02-12T19:01:30.009Z,31.07
2023-02-12T19:04:01.427Z,31.65
2023-02-12T19:06:30.593Z,38.47
2023-02-12T19:09:04.507Z,40.10
2023-02-12T19:11:33.235Z,36.10
2023-02-12T19:14:02.929Z,30.63
2023-02-12T19:16:33.132Z,39.93
2023-02-12T19:19:02.826Z,41.73
2023-02-12T19:21:31.643Z,38.63
2023-02-12T19:24:01.262Z,40.83
2023-02-12T19:26:30.035Z,41.43
2023-02-12T19:28:59.142Z,32.37
2023-02-12T19:31:31.817Z,32.57
2023-02-12T19:34:01.703Z,38.05
2023-02-12T19:36:32.884Z,37.23
2023-02-12T19:39:01.258Z,43.20
2023-02-12T19:41:30.775Z,40.73
2023-02-12T19:44:00.586Z,39.08
2023-02-12T19:46:32.076Z,37.20
2023-02-12T19:49:01.909Z,41.33
2023-02-12T19:51:31.254Z,35.67
2023-02-12T19:54:04.270Z,31.97
2023-02-12T19:56:32.404Z,44.28
2023-02-12T19:59:00.657Z,42.20
2023-02-12T20:01:30.317Z,39.37
2023-02-12T20:03:59.255Z,46.77
2023-02-12T20:06:30.099Z,37.07
2023-02-12T20:08:58.102Z,32.53
2023-02-12T20:11:28.955Z,39.70
2023-02-12T20:13:57.236Z,33.87
2023-02-12T20:16:31.524Z,36.37
2023-02-12T20:19:04.148Z,44.80
2023-02-12T20:21:32.487Z,35.10
2023-02-12T20:24:01.808Z,39.83
2023-02-12T20:26:31.058Z,43.33
2023-02-12T20:29:00.529Z,39.77
2023-02-12T20:31:31.982Z,36.53
2023-02-12T20:34:04.796Z,31.27
2023-02-12T20:36:35.069Z,36.37
2023-02-12T20:39:03.412Z,35.47
2023-02-12T20:41:31.517Z,31.83
2023-02-12T20:44:01.827Z,32.40
2023-02-12T20:46:29.844Z,31.70
2023-02-12T20:48:58.558Z,30.30
2023-02-12T20:51:29.008Z,42.60
2023-02-12T20:53:57.352Z,32.67
2023-02-12T20:56:27.113Z,30.27
2023-02-12T20:58:55.805Z,33.07
2023-02-12T21:01:26.754Z,28.80
2023-02-12T21:03:56.640Z,29.38
2023-02-12T21:06:26.993Z,33.75
2023-02-12T21:08:55.077Z,34.03
2023-02-12T21:11:25.883Z,39.67
2023-02-12T21:14:02.349Z,28.27
2023-02-12T21:16:32.830Z,37.40
2023-02-12T21:19:01.319Z,30.23
2023-02-12T21:21:32.283Z,32.70
2023-02-12T21:24:01.573Z,38.60
2023-02-12T21:26:31.426Z,35.27
2023-02-12T21:29:00.919Z,27.53
2023-02-12T21:31:31.099Z,26.40
2023-02-12T21:34:00.629Z,25.77
2023-02-12T21:36:33.229Z,24.10
2023-02-12T21:39:01.883Z,28.37
2023-02-12T21:41:31.541Z,26.83
2023-02-12T21:44:01.519Z,26.80
2023-02-12T21:46:30.536Z,23.20
2023-02-12T21:48:59.794Z,25.80
2023-02-12T21:51:30.023Z,29.10
2023-02-12T21:54:01.806Z,39.73
2023-02-12T21:56:30.629Z,25.03
2023-02-12T21:59:00.223Z,31.10
2023-02-12T22:01:32.162Z,30.07
2023-02-12T22:04:01.964Z,35.42
2023-02-12T22:06:30.608Z,28.37
2023-02-12T22:09:03.014Z,31.97
2023-02-12T22:11:31.002Z,38.53
2023-02-12T22:13:58.992Z,26.93
2023-02-12T22:16:28.712Z,26.00
2023-02-12T22:18:59.676Z,26.47
2023-02-12T22:21:40.134Z,30.17
2023-02-12T22:24:12.258Z,30.13
2023-02-12T22:26:40.177Z,28.20
2023-02-12T22:29:10.419Z,26.70
2023-02-12T22:31:40.426Z,26.92
2023-02-12T22:34:12.320Z,27.13
2023-02-12T22:36:41.340Z,26.40
2023-02-12T22:39:14.006Z,25.83
2023-02-12T22:41:43.046Z,26.90
2023-02-12T22:44:12.051Z,22.80
2023-02-12T22:46:40.260Z,24.70
2023-02-12T22:49:08.377Z,20.93
2023-02-12T22:51:39.118Z,31.77
2023-02-12T22:54:07.902Z,23.10
2023-02-12T22:56:37.375Z,36.27
2023-02-12T22:59:05.445Z,24.23
2023-02-12T23:01:33.397Z,25.37
2023-02-12T23:04:01.575Z,29.73
2023-02-12T23:06:31.119Z,29.20
2023-02-12T23:09:01.495Z,27.17
2023-02-12T23:11:31.110Z,28.37
2023-02-12T23:14:00.681Z,27.43
2023-02-12T23:16:29.406Z,20.50
2023-02-12T23:18:58.389Z,29.30
2023-02-12T23:21:27.327Z,26.03
2023-02-12T23:23:55.705Z,26.33
2023-02-12T23:26:24.627Z,26.60
2023-02-12T23:28:52.762Z,23.23
2023-02-12T23:31:22.303Z,28.27
2023-02-12T23:33:50.512Z,25.87
2023-02-12T23:36:18.861Z,25.23
2023-02-12T23:38:46.884Z,31.63
2023-02-12T23:41:14.857Z,26.50
2023-02-12T23:43:42.942Z,19.63
2023-02-12T23:46:10.965Z,25.20
2023-02-12T23:48:41.331Z,24.97
2023-02-12T23:51:10.157Z,22.10
2023-02-12T23:53:38.261Z,25.27
2023-02-12T23:56:06.880Z,21.97
2023-02-12T23:58:34.792Z,27.57
